Time;durP1;ratioP1;P1;durP2;ratioP2;P2;SDS_P1;SDS_P2;PMS_P1;PMS_P2;Temp;Humidity;BMP_temperature;BMP_pressure;BME280_temperature;BME280_humidity;BME280_pressure;Samples;Min_cycle;Max_cycle;Signal;HPM_P1;HPM_P2
2023/03/24 00:02:19;;;;;;;;;;;;;;;14.72;49.46;100719.06;5055307;28;20312;-79
2023/03/24 00:05:16;;;;;;;;;;;;;;;14.76;49.67;100723.50;5060400;28;19917;-78
2023/03/24 00:08:08;;;;;;;;;;;;;;;14.71;49.74;100723.72;5058763;28;19920;-78
2023/03/24 00:11:04;;;;;;;;;;;;;;;14.71;49.52;100725.66;5062079;28;19921;-77
2023/03/24 00:13:54;;;;;;;;;;;;;;;14.68;49.78;100734.56;5057070;28;19916;-78
2023/03/24 00:16:45;;;;;;;;;;;;;;;14.62;49.95;100725.00;5060401;28;19917;-78
2023/03/24 00:19:38;;;;;;;;;;;;;;;14.54;50.07;100721.22;5060989;28;19916;-78
2023/03/24 00:22:30;;;;;;;;;;;;;;;14.49;50.12;100716.75;5058655;28;19917;-79
2023/03/24 00:25:23;;;;;;;;;;;;;;;14.49;50.27;100716.75;5062092;28;19917;-78
2023/03/24 00:28:12;;;;;;;;;;;;;;;14.49;50.49;100711.28;5055324;28;19917;-78
2023/03/24 00:31:04;;;;;;;;;;;;;;;14.48;50.50;100714.34;5057693;28;19920;-78
2023/03/24 00:33:53;;;;;;;;;;;;;;;14.42;50.69;100711.06;5060420;28;19917;-78
2023/03/24 00:36:45;;;;;;;;;;;;;;;14.35;50.89;100712.72;5072062;28;19917;-78
2023/03/24 00:39:37;;;;;;;;;;;;;;;14.34;50.92;100709.19;5077033;28;20375;-78
2023/03/24 00:42:29;;;;;;;;;;;;;;;14.31;51.05;100715.34;5055025;28;19916;-78
2023/03/24 00:45:22;;;;;;;;;;;;;;;14.31;51.88;100707.16;5069050;28;19917;-78
2023/03/24 00:48:14;;;;;;;;;;;;;;;14.27;51.71;100706.25;5056147;28;19917;-78
2023/03/24 00:51:04;;;;;;;;;;;;;;;14.28;51.59;100707.00;5058846;28;20411;-78
2023/03/24 00:53:56;;;;;;;;;;;;;;;14.15;51.81;100717.16;5069263;28;19917;-79
2023/03/24 00:56:49;;;;;;;;;;;;;;;14.11;52.63;100722.50;5048637;28;19936;-77
2023/03/24 00:59:41;;;;;;;;;;;;;;;14.13;52.34;100725.69;5059397;28;19916;-78
2023/03/24 01:02:33;;;;;;;;;;;;;;;14.15;52.38;100722.63;5076213;28;19920;-78
2023/03/24 01:05:24;;;;;;;;;;;;;;;14.16;52.26;100717.94;5058143;28;19917;-78
2023/03/24 01:08:14;;;;;;;;;;;;;;;14.10;52.58;100714.63;5053164;28;19916;-78
2023/03/24 01:11:08;;;;;;;;;;;;;;;14.10;53.13;100709.16;5075127;28;20380;-78
2023/03/24 01:13:57;;;;;;;;;;;;;;;14.09;53.14;100694.69;5061655;28;19916;-77
2023/03/24 01:16:47;;;;;;;;;;;;;;;14.05;53.21;100699.25;5055567;28;19925;-79
2023/03/24 01:19:36;;;;;;;;;;;;;;;14.08;53.84;100693.09;5074656;28;19917;-78
2023/03/24 01:22:28;;;;;;;;;;;;;;;14.09;53.71;100691.16;5058227;28;19917;-78
2023/03/24 01:25:22;;;;;;;;;;;;;;;14.03;53.79;100681.56;5055276;28;19921;-78
2023/03/24 01:28:14;;;;;;;;;;;;;;;13.98;54.12;100670.84;5054966;28;19917;-78
2023/03/24 01:31:06;;;;;;;;;;;;;;;13.88;54.60;100657.63;5051479;28;19921;-78
2023/03/24 01:33:58;;;;;;;;;;;;;;;13.86;54.59;100660.72;5036699;28;19917;-77
2023/03/24 01:36:50;;;;;;;;;;;;;;;13.87;54.65;100666.94;5048974;28;20417;-78
2023/03/24 01:39:39;;;;;;;;;;;;;;;13.82;54.71;100670.69;5048163;28;19917;-78
2023/03/24 01:42:31;;;;;;;;;;;;;;;13.77;54.59;100673.63;5055583;28;19916;-78
2023/03/24 01:45:42;;;;;;;;;;;;;;;13.73;54.66;100666.47;5057779;28;20380;-77
2023/03/24 01:48:41;;;;;;;;;;;;;;;13.72;55.00;100671.13;5049108;28;19917;-79
2023/03/24 01:51:38;;;;;;;;;;;;;;;13.60;55.52;100666.44;5058213;28;19920;-78
2023/03/24 01:54:35;;;;;;;;;;;;;;;13.44;56.09;100670.13;5069592;28;19917;-78
2023/03/24 01:57:36;;;;;;;;;;;;;;;13.43;55.24;100680.25;5068548;28;20380;-78
2023/03/24 02:00:26;;;;;;;;;;;;;;;13.27;55.63;100676.53;5049545;28;20523;-78
2023/03/24 02:03:41;;;;;;;;;;;;;;;13.14;56.52;100663.94;5040809;28;19917;-78
2023/03/24 02:06:34;;;;;;;;;;;;;;;13.05;56.28;100674.13;5052835;28;19917;-78
2023/03/24 02:09:26;;;;;;;;;;;;;;;13.04;56.50;100661.59;5071296;28;19917;-78
2023/03/24 02:12:18;;;;;;;;;;;;;;;13.01;56.75;100667.69;5035428;28;19921;-77
2023/03/24 02:15:07;;;;;;;;;;;;;;;13.10;56.56;100665.72;5033982;28;19917;-77
2023/03/24 02:18:00;;;;;;;;;;;;;;;13.09;56.80;100653.19;5042375;28;19917;-78
2023/03/24 02:21:02;;;;;;;;;;;;;;;13.17;56.70;100666.81;5055144;28;19917;-78
2023/03/24 02:24:11;;;;;;;;;;;;;;;13.12;56.97;100664.28;5059486;28;19916;-78
2023/03/24 02:27:10;;;;;;;;;;;;;;;13.09;56.86;100659.47;5055162;28;19916;-78
2023/03/24 02:30:23;;;;;;;;;;;;;;;13.15;56.65;100651.91;5054606;28;19925;-78
2023/03/24 02:33:25;;;;;;;;;;;;;;;13.05;56.78;100650.34;5049175;28;19916;-79
2023/03/24 02:36:37;;;;;;;;;;;;;;;13.05;56.70;100650.34;5056380;28;19925;-78
2023/03/24 02:39:36;;;;;;;;;;;;;;;12.99;56.58;100648.13;5052192;28;19921;-78
2023/03/24 02:42:41;;;;;;;;;;;;;;;12.90;56.90;100637.28;5059331;28;19917;-79
2023/03/24 02:45:33;;;;;;;;;;;;;;;12.96;56.24;100633.22;5055235;28;19916;-77
2023/03/24 02:48:38;;;;;;;;;;;;;;;12.92;56.29;100629.56;5053492;28;19917;-78
2023/03/24 02:51:40;;;;;;;;;;;;;;;12.87;56.76;100629.75;5034998;28;20373;-78
2023/03/24 02:54:41;;;;;;;;;;;;;;;12.92;56.80;100631.50;5052103;28;19917;-78
2023/03/24 02:57:42;;;;;;;;;;;;;;;12.97;56.11;100629.34;5047549;28;19917;-77
2023/03/24 03:01:15;;;;;;;;;;;;;;;12.83;56.38;100629.63;5050476;28;20380;-78
2023/03/24 03:04:32;;;;;;;;;;;;;;;12.84;56.74;100633.97;5053395;28;19916;-78
2023/03/24 03:07:31;;;;;;;;;;;;;;;12.82;56.53;100632.69;5057051;28;20392;-78
2023/03/24 03:10:25;;;;;;;;;;;;;;;12.86;56.23;100639.88;5061648;28;20380;-77
2023/03/24 03:13:26;;;;;;;;;;;;;;;12.82;56.30;100638.94;5041634;28;19917;-78
2023/03/24 03:16:26;;;;;;;;;;;;;;;12.81;56.61;100642.78;5039998;28;19921;-79
2023/03/24 03:19:18;;;;;;;;;;;;;;;12.73;56.46;100635.47;5058269;28;19917;-77
2023/03/24 03:22:12;;;;;;;;;;;;;;;12.67;56.58;100636.81;5054661;28;19917;-77
2023/03/24 03:25:05;;;;;;;;;;;;;;;12.51;56.39;100627.59;5044954;28;19924;-78
2023/03/24 03:27:59;;;;;;;;;;;;;;;12.43;56.63;100621.06;5058552;28;20399;-79
2023/03/24 03:30:55;;;;;;;;;;;;;;;12.34;56.77;100608.63;5060268;28;19921;-77
2023/03/24 03:33:48;;;;;;;;;;;;;;;12.36;57.11;100617.25;5058335;28;19921;-78
2023/03/24 03:36:47;;;;;;;;;;;;;;;12.35;57.14;100616.44;5059941;28;19920;-79
2023/03/24 03:39:40;;;;;;;;;;;;;;;12.38;57.14;100610.34;5058028;28;19916;-78
2023/03/24 03:42:33;;;;;;;;;;;;;;;12.51;57.10;100616.69;5074519;28;19917;-78
2023/03/24 03:45:25;;;;;;;;;;;;;;;12.45;57.56;100615.25;5059472;28;19917;-78
2023/03/24 03:48:18;;;;;;;;;;;;;;;12.45;57.64;100609.81;5063006;28;19921;-80
2023/03/24 03:51:10;;;;;;;;;;;;;;;12.46;57.86;100608.69;5058195;28;20342;-78
2023/03/24 03:54:04;;;;;;;;;;;;;;;12.48;57.72;100600.97;5057225;28;19921;-78
2023/03/24 03:56:56;;;;;;;;;;;;;;;12.45;57.52;100604.34;5073774;28;19916;-78
2023/03/24 03:59:53;;;;;;;;;;;;;;;12.43;57.53;100601.19;5057148;28;19917;-79
2023/03/24 04:02:50;;;;;;;;;;;;;;;12.34;57.65;100608.63;5060970;28;19917;-79
2023/03/24 04:05:47;;;;;;;;;;;;;;;12.32;57.45;100605.41;5060537;28;19917;-78
2023/03/24 04:08:43;;;;;;;;;;;;;;;11.73;58.47;100602.63;5057447;28;19916;-78
2023/03/24 04:11:47;;;;;;;;;;;;;;;11.45;59.48;100610.34;5054788;28;19920;-78
2023/03/24 04:14:58;;;;;;;;;;;;;;;11.63;59.22;100602.16;5058151;28;19917;-79
2023/03/24 04:18:11;;;;;;;;;;;;;;;11.72;59.48;100595.53;5060876;28;19917;-78
2023/03/24 04:21:33;;;;;;;;;;;;;;;11.78;59.96;100599.72;5055585;28;19916;-78
2023/03/24 04:24:32;;;;;;;;;;;;;;;12.02;58.99;100599.16;5054956;28;19917;-78
2023/03/24 04:27:26;;;;;;;;;;;;;;;12.07;58.78;100611.78;5071399;28;19920;-79
2023/03/24 04:30:14;;;;;;;;;;;;;;;12.17;59.28;100616.88;5058849;28;19921;-77
2023/03/24 04:33:10;;;;;;;;;;;;;;;12.18;58.89;100618.47;5057817;28;19917;-78
2023/03/24 04:36:06;;;;;;;;;;;;;;;12.12;58.57;100615.13;5063929;28;19916;-78
2023/03/24 04:39:03;;;;;;;;;;;;;;;11.89;58.92;100613.78;5053300;28;19917;-78
2023/03/24 04:42:03;;;;;;;;;;;;;;;11.79;59.16;100617.66;5057684;28;19917;-78
2023/03/24 04:44:57;;;;;;;;;;;;;;;11.71;59.57;100607.56;5060092;28;19917;-78
2023/03/24 04:48:13;;;;;;;;;;;;;;;11.81;59.85;100607.25;5047222;28;19917;-78
2023/03/24 04:51:26;;;;;;;;;;;;;;;11.88;59.67;100607.53;5055403;28;19928;-79
2023/03/24 04:54:25;;;;;;;;;;;;;;;11.77;59.95;100606.31;5056469;28;19916;-78
2023/03/24 04:57:20;;;;;;;;;;;;;;;11.84;59.85;100612.03;5062004;28;19917;-78
2023/03/24 05:00:11;;;;;;;;;;;;;;;11.85;59.86;100612.81;5056053;28;20307;-76
2023/03/24 05:03:03;;;;;;;;;;;;;;;11.90;59.95;100613.44;5071332;28;20552;-78
2023/03/24 05:05:55;;;;;;;;;;;;;;;11.87;60.06;100619.56;5055955;28;19917;-78
2023/03/24 05:08:47;;;;;;;;;;;;;;;11.87;59.99;100619.56;5056452;28;19917;-77
2023/03/24 05:11:39;;;;;;;;;;;;;;;11.86;59.79;100623.41;5058339;28;19925;-78
2023/03/24 05:14:31;;;;;;;;;;;;;;;11.93;59.65;100622.91;5055540;28;19916;-79
2023/03/24 05:17:21;;;;;;;;;;;;;;;11.95;59.70;100624.16;5056928;28;19917;-78
2023/03/24 05:20:13;;;;;;;;;;;;;;;11.95;59.86;100632.34;5058414;28;19917;-79
2023/03/24 05:23:06;;;;;;;;;;;;;;;11.96;59.75;100633.94;5069104;28;19917;-78
2023/03/24 05:25:58;;;;;;;;;;;;;;;11.99;59.68;100633.28;5058884;28;19917;-77
2023/03/24 05:28:51;;;;;;;;;;;;;;;12.00;60.04;100639.53;5054192;28;19921;-79
2023/03/24 05:31:43;;;;;;;;;;;;;;;12.07;59.86;100649.94;5057131;28;19925;-78
2023/03/24 05:34:37;;;;;;;;;;;;;;;12.02;60.01;100650.13;5066406;28;20383;-78
2023/03/24 05:37:31;;;;;;;;;;;;;;;11.97;60.20;100643.72;5052189;28;19916;-77
2023/03/24 05:40:24;;;;;;;;;;;;;;;11.97;60.05;100645.66;5069430;28;19917;-78
2023/03/24 05:43:19;;;;;;;;;;;;;;;11.97;61.22;100653.84;5060214;28;19921;-78
2023/03/24 05:46:19;;;;;;;;;;;;;;;12.07;61.71;100652.66;5080774;28;19920;-78
2023/03/24 05:49:11;;;;;;;;;;;;;;;12.15;61.40;100646.38;5068123;28;19921;-75
2023/03/24 05:52:01;;;;;;;;;;;;;;;12.27;61.26;100660.94;5052764;28;20334;-75
2023/03/24 05:54:53;;;;;;;;;;;;;;;12.38;61.28;100667.63;5055059;28;19917;-77
2023/03/24 05:57:46;;;;;;;;;;;;;;;12.49;61.09;100665.31;5061779;28;19938;-78
2023/03/24 06:00:46;;;;;;;;;;;;;;;12.56;61.05;100671.03;5067696;28;19917;-77
2023/03/24 06:03:44;;;;;;;;;;;;;;;12.65;60.61;100671.78;5066437;28;19917;-78
2023/03/24 06:06:37;;;;;;;;;;;;;;;12.69;60.26;100667.28;5070414;28;19917;-77
2023/03/24 06:09:27;;;;;;;;;;;;;;;12.69;60.41;100661.84;5069486;28;19916;-77
2023/03/24 06:12:20;;;;;;;;;;;;;;;12.81;59.96;100674.75;5055951;28;19929;-78
2023/03/24 06:15:23;;;;;;;;;;;;;;;12.82;60.13;100671.69;5057695;28;19916;-77
2023/03/24 06:18:15;;;;;;;;;;;;;;;12.89;60.49;100676.63;5056115;28;19917;-79
2023/03/24 06:21:07;;;;;;;;;;;;;;;12.95;60.24;100674.50;5058024;28;19917;-78
2023/03/24 06:23:57;;;;;;;;;;;;;;;13.00;60.44;100672.38;5057261;28;19917;-78
2023/03/24 06:26:52;;;;;;;;;;;;;;;13.07;60.65;100667.19;5064769;28;19917;-78
2023/03/24 06:29:44;;;;;;;;;;;;;;;13.14;60.46;100675.69;5058275;28;20380;-77
2023/03/24 06:32:37;;;;;;;;;;;;;;;13.22;60.41;100669.34;5079067;28;19920;-78
2023/03/24 06:35:29;;;;;;;;;;;;;;;13.27;60.93;100673.78;5058856;28;19936;-77
2023/03/24 06:38:26;;;;;;;;;;;;;;;13.36;60.77;100682.69;5058742;28;19917;-79
2023/03/24 06:41:18;;;;;;;;;;;;;;;13.38;60.56;100677.72;5061838;28;19916;-77
2023/03/24 06:44:10;;;;;;;;;;;;;;;13.45;60.48;100683.44;5064960;28;19924;-76
2023/03/24 06:47:01;;;;;;;;;;;;;;;13.52;60.75;100683.69;5058098;28;19917;-76
2023/03/24 06:49:51;;;;;;;;;;;;;;;13.60;60.52;100691.03;5070915;28;19917;-78
2023/03/24 06:52:43;;;;;;;;;;;;;;;13.68;60.16;100683.88;5060444;28;19921;-76
2023/03/24 06:55:35;;;;;;;;;;;;;;;13.74;60.17;100679.78;5057539;28;19916;-77
2023/03/24 06:58:27;;;;;;;;;;;;;;;13.82;59.90;100686.28;5077029;28;19916;-77
2023/03/24 07:01:23;;;;;;;;;;;;;;;13.89;59.75;100686.56;5067977;28;20296;-76
2023/03/24 07:04:21;;;;;;;;;;;;;;;13.92;59.71;100691.34;5057242;28;20485;-77
2023/03/24 07:07:20;;;;;;;;;;;;;;;13.97;59.56;100693.84;5058482;28;19920;-76
2023/03/24 07:10:17;;;;;;;;;;;;;;;14.03;59.56;100704.25;5057646;28;19920;-76
2023/03/24 07:13:10;;;;;;;;;;;;;;;14.10;59.45;100698.22;5057607;28;19920;-77
2023/03/24 07:16:02;;;;;;;;;;;;;;;14.16;59.58;100696.06;5066375;28;19916;-78
2023/03/24 07:18:53;;;;;;;;;;;;;;;14.21;59.41;100693.91;5055831;28;19916;-76
2023/03/24 07:21:45;;;;;;;;;;;;;;;14.28;59.42;100699.59;5070304;28;19920;-77
2023/03/24 07:24:40;;;;;;;;;;;;;;;14.35;59.20;100699.84;5057544;28;19921;-77
2023/03/24 07:27:49;;;;;;;;;;;;;;;14.42;59.03;100713.81;5056997;28;19924;-77
2023/03/24 07:30:41;;;;;;;;;;;;;;;14.49;58.96;100707.75;5069474;28;19920;-77
2023/03/24 07:33:34;;;;;;;;;;;;;;;14.54;58.77;100711.06;5060956;28;19920;-76
2023/03/24 07:36:26;;;;;;;;;;;;;;;14.61;58.84;100701.50;5058984;28;19917;-76
2023/03/24 07:39:19;;;;;;;;;;;;;;;14.67;58.75;100713.81;5054779;28;19916;-77
2023/03/24 07:42:11;;;;;;;;;;;;;;;14.74;58.54;100700.34;5062990;28;19917;-76
2023/03/24 07:45:30;;;;;;;;;;;;;;;14.80;58.38;100701.72;5066424;28;20572;-76
2023/03/24 07:48:22;;;;;;;;;;;;;;;14.84;58.32;100700.66;5076279;28;19916;-76
2023/03/24 07:51:14;;;;;;;;;;;;;;;14.91;58.42;100702.84;5068938;28;19921;-76
2023/03/24 07:54:33;;;;;;;;;;;;;;;14.93;58.76;100701.34;5070102;28;19931;-76
2023/03/24 07:57:25;;;;;;;;;;;;;;;14.98;58.63;100700.34;5054344;28;19917;-78
2023/03/24 08:00:17;;;;;;;;;;;;;;;14.98;58.96;100697.59;5068287;28;19916;-77
2023/03/24 08:03:16;;;;;;;;;;;;;;;15.05;58.67;100697.00;5063988;28;19916;-77
2023/03/24 08:06:24;;;;;;;;;;;;;;;15.06;59.22;100701.31;5064035;28;19917;-76
2023/03/24 08:09:16;;;;;;;;;;;;;;;15.11;58.38;100699.16;5060202;28;19916;-76
2023/03/24 08:12:08;;;;;;;;;;;;;;;15.12;58.63;100695.28;5062791;28;19921;-76
2023/03/24 08:15:00;;;;;;;;;;;;;;;15.18;57.95;100702.13;5072634;28;19920;-77
2023/03/24 08:17:50;;;;;;;;;;;;;;;15.19;58.20;100695.47;5059016;28;19922;-77
2023/03/24 08:20:43;;;;;;;;;;;;;;;15.21;58.12;100701.41;5059074;28;19917;-77
2023/03/24 08:23:35;;;;;;;;;;;;;;;15.23;58.34;100701.06;5055601;28;19917;-77
2023/03/24 08:26:30;;;;;;;;;;;;;;;15.25;58.14;100694.09;5068215;28;19916;-77
2023/03/24 08:29:22;;;;;;;;;;;;;;;15.27;58.57;100697.28;5066548;28;19917;-76
2023/03/24 08:32:14;;;;;;;;;;;;;;;15.31;57.51;100700.13;5054084;28;19921;-78
2023/03/24 08:35:06;;;;;;;;;;;;;;;15.36;57.31;100702.63;5058288;28;19917;-76
2023/03/24 08:37:58;;;;;;;;;;;;;;;15.40;57.51;100707.06;5061022;28;19917;-76
2023/03/24 08:40:47;;;;;;;;;;;;;;;15.41;58.10;100708.66;5057209;28;19924;-77
2023/03/24 08:43:39;;;;;;;;;;;;;;;15.44;57.74;100706.38;5059857;28;19917;-78
2023/03/24 08:46:28;;;;;;;;;;;;;;;15.48;57.50;100708.06;5064352;28;19916;-78
2023/03/24 08:49:18;;;;;;;;;;;;;;;15.50;58.32;100713.97;5067795;28;19916;-77
2023/03/24 08:52:07;;;;;;;;;;;;;;;15.49;59.07;100714.34;5071153;28;20299;-78
2023/03/24 08:54:59;;;;;;;;;;;;;;;15.52;58.09;100708.19;5057197;28;19917;-78
2023/03/24 08:57:49;;;;;;;;;;;;;;;15.57;58.59;100714.22;5064657;28;19917;-79
2023/03/24 09:00:41;;;;;;;;;;;;;;;15.61;58.52;100700.63;5075319;28;19921;-81
2023/03/24 09:03:38;;;;;;;;;;;;;;;15.64;58.86;100705.41;5078077;28;19917;-78
2023/03/24 09:06:30;;;;;;;;;;;;;;;15.66;58.81;100695.69;5065732;28;20323;-78
2023/03/24 09:09:19;;;;;;;;;;;;;;;15.69;59.26;100702.41;5071913;28;19916;-79
2023/03/24 09:12:09;;;;;;;;;;;;;;;15.72;58.71;100696.22;5057304;28;19921;-78
2023/03/24 09:14:58;;;;;;;;;;;;;;;15.74;59.75;100702.16;5068871;28;19917;-78
2023/03/24 09:17:50;;;;;;;;;;;;;;;15.79;60.00;100707.41;5069813;28;19921;-78
2023/03/24 09:20:39;;;;;;;;;;;;;;;15.82;58.55;100709.44;5075776;28;19916;-78
2023/03/24 09:23:30;;;;;;;;;;;;;;;15.86;58.12;100707.56;5059636;28;19917;-78
2023/03/24 09:26:22;;;;;;;;;;;;;;;15.88;59.00;100709.97;5066351;28;19917;-78
2023/03/24 09:29:11;;;;;;;;;;;;;;;15.94;58.51;100706.63;5069570;28;19916;-79
2023/03/24 09:32:03;;;;;;;;;;;;;;;15.97;58.40;100702.38;5067570;28;19921;-79
2023/03/24 09:34:57;;;;;;;;;;;;;;;16.02;57.89;100697.44;5057203;28;20296;-82
2023/03/24 09:37:49;;;;;;;;;;;;;;;16.06;57.52;100698.31;5065615;28;20003;-82
2023/03/24 09:40:42;;;;;;;;;;;;;;;16.12;57.62;100701.59;5066386;28;19920;-78
2023/03/24 09:43:45;;;;;;;;;;;;;;;16.18;57.39;100692.75;5057846;28;19916;-78
2023/03/24 09:46:44;;;;;;;;;;;;;;;16.22;57.41;100693.66;5058625;28;20303;-78
2023/03/24 09:49:37;;;;;;;;;;;;;;;16.25;57.26;100683.94;5064892;28;19917;-77
2023/03/24 09:52:33;;;;;;;;;;;;;;;16.31;57.00;100689.91;5057673;28;20387;-77
2023/03/24 09:55:26;;;;;;;;;;;;;;;16.33;57.01;100690.38;5054774;28;19921;-77
2023/03/24 09:58:19;;;;;;;;;;;;;;;16.36;56.94;100692.41;5055854;28;20454;-77
2023/03/24 10:01:15;;;;;;;;;;;;;;;16.38;56.80;100707.38;5065885;28;19921;-79
2023/03/24 10:04:14;;;;;;;;;;;;;;;16.41;56.65;100700.38;5057183;28;20291;-78
2023/03/24 10:07:13;;;;;;;;;;;;;;;16.44;56.64;100705.97;5060519;28;19928;-79
2023/03/24 10:10:06;;;;;;;;;;;;;;;16.47;56.47;100694.25;5058616;28;19916;-78
2023/03/24 10:13:02;;;;;;;;;;;;;;;16.51;56.46;100702.56;5066167;28;19920;-82
2023/03/24 10:15:55;;;;;;;;;;;;;;;16.53;56.38;100686.56;5072838;28;19917;-77
2023/03/24 10:18:51;;;;;;;;;;;;;;;16.55;56.17;100687.00;5063365;28;19917;-78
2023/03/24 10:21:46;;;;;;;;;;;;;;;16.60;56.27;100679.34;5058348;28;19916;-77
2023/03/24 10:24:43;;;;;;;;;;;;;;;16.65;55.91;100681.81;5058383;28;19917;-77
2023/03/24 10:27:43;;;;;;;;;;;;;;;16.70;56.02;100685.41;5055399;28;19916;-77
2023/03/24 10:30:37;;;;;;;;;;;;;;;16.72;55.46;100681.16;5054244;28;19916;-79
2023/03/24 10:33:27;;;;;;;;;;;;;;;16.75;55.19;100677.72;5064414;28;19920;-79
2023/03/24 10:36:20;;;;;;;;;;;;;;;16.79;55.23;100677.78;5058137;28;19916;-77
2023/03/24 10:39:15;;;;;;;;;;;;;;;16.83;55.24;100682.19;5057528;28;20295;-78
2023/03/24 10:42:07;;;;;;;;;;;;;;;16.86;54.89;100662.28;5057935;28;19917;-77
2023/03/24 10:44:59;;;;;;;;;;;;;;;16.90;54.63;100673.31;5057512;28;19932;-78
2023/03/24 10:47:51;;;;;;;;;;;;;;;16.92;54.32;100666.31;5055339;28;19921;-79
2023/03/24 10:50:47;;;;;;;;;;;;;;;16.97;53.87;100674.25;5058602;28;19917;-78
2023/03/24 10:53:39;;;;;;;;;;;;;;;17.01;53.78;100677.13;5056059;28;19921;-77
2023/03/24 10:56:44;;;;;;;;;;;;;;;17.06;53.99;100672.13;5058454;28;20090;-78
2023/03/24 10:59:49;;;;;;;;;;;;;;;17.11;54.05;100660.06;5058030;28;20322;-80
2023/03/24 11:02:42;;;;;;;;;;;;;;;17.21;53.70;100661.44;5071876;28;19917;-78
2023/03/24 11:05:34;;;;;;;;;;;;;;;17.27;53.41;100662.75;5075518;28;19921;-76
2023/03/24 11:08:33;;;;;;;;;;;;;;;17.32;53.49;100654.97;5055690;28;19917;-77
2023/03/24 11:11:28;;;;;;;;;;;;;;;17.36;53.54;100663.31;5060333;28;19921;-78
2023/03/24 11:14:29;;;;;;;;;;;;;;;17.43;53.29;100652.44;5060505;28;19916;-77
2023/03/24 11:17:21;;;;;;;;;;;;;;;17.47;53.04;100642.34;5049882;28;19920;-77
2023/03/24 11:20:37;;;;;;;;;;;;;;;17.54;52.65;100636.97;5054375;28;20395;-77
2023/03/24 11:23:29;;;;;;;;;;;;;;;17.57;52.84;100630.75;5059930;28;19917;-78
2023/03/24 11:26:22;;;;;;;;;;;;;;;17.72;52.38;100631.84;5078545;28;20303;-78
2023/03/24 11:29:16;;;;;;;;;;;;;;;17.75;52.13;100626.38;5049582;28;19917;-78
2023/03/24 11:32:10;;;;;;;;;;;;;;;17.78;52.35;100630.34;5062536;28;20295;-80
2023/03/24 11:35:03;;;;;;;;;;;;;;;17.87;52.04;100636.44;5075764;28;19917;-78
2023/03/24 11:37:55;;;;;;;;;;;;;;;17.94;51.72;100622.78;5040160;28;19917;-78
2023/03/24 11:40:57;;;;;;;;;;;;;;;18.02;52.07;100623.72;5043417;28;19917;-79
2023/03/24 11:43:45;;;;;;;;;;;;;;;18.08;51.71;100622.25;5057025;28;19924;-78
2023/03/24 11:46:36;;;;;;;;;;;;;;;18.11;51.44;100625.06;5061931;28;19924;-78
2023/03/24 11:49:34;;;;;;;;;;;;;;;18.14;51.10;100607.00;5079719;28;19917;-78
2023/03/24 11:52:28;;;;;;;;;;;;;;;18.28;51.28;100615.50;5070871;28;20380;-77
2023/03/24 11:55:30;;;;;;;;;;;;;;;18.33;51.15;100612.44;5064126;28;19917;-78
2023/03/24 11:58:26;;;;;;;;;;;;;;;18.84;49.87;100609.25;5063567;28;19916;-76
2023/03/24 12:01:22;;;;;;;;;;;;;;;19.99;45.36;100613.72;5063811;28;20379;-77
2023/03/24 12:04:20;;;;;;;;;;;;;;;20.30;45.37;100601.34;5054707;28;19917;-76
2023/03/24 12:07:13;;;;;;;;;;;;;;;19.79;46.46;100604.06;5062619;28;19939;-75
2023/03/24 12:10:21;;;;;;;;;;;;;;;19.50;47.30;100603.00;5061558;28;19917;-76
2023/03/24 12:13:19;;;;;;;;;;;;;;;19.70;46.65;100596.09;5058896;28;19921;-77
2023/03/24 12:16:19;;;;;;;;;;;;;;;19.70;46.61;100589.78;5063597;28;19916;-76
2023/03/24 12:19:27;;;;;;;;;;;;;;;20.06;45.15;100583.41;5064437;28;19920;-77
2023/03/24 12:22:43;;;;;;;;;;;;;;;19.63;46.50;100585.78;5060583;28;19916;-76
2023/03/24 12:25:36;;;;;;;;;;;;;;;19.80;46.33;100575.31;5061886;28;19925;-76
2023/03/24 12:28:37;;;;;;;;;;;;;;;19.82;45.84;100570.19;5063517;28;19917;-76
2023/03/24 12:31:41;;;;;;;;;;;;;;;20.18;45.01;100563.78;5061584;28;20331;-77
2023/03/24 12:34:50;;;;;;;;;;;;;;;20.02;45.00;100549.44;5064182;28;19921;-76
2023/03/24 12:37:58;;;;;;;;;;;;;;;20.40;44.00;100551.72;5069602;28;19917;-76
2023/03/24 12:40:59;;;;;;;;;;;;;;;20.27;44.22;100555.13;5072003;28;19917;-76
2023/03/24 12:44:17;;;;;;;;;;;;;;;19.95;45.44;100554.94;5063101;28;19920;-75
2023/03/24 12:47:31;;;;;;;;;;;;;;;20.27;44.68;100544.88;5036111;28;19917;-76
2023/03/24 12:50:31;;;;;;;;;;;;;;;20.45;44.08;100543.06;5036027;28;19924;-77
2023/03/24 12:53:35;;;;;;;;;;;;;;;20.17;44.68;100534.56;5060551;28;19921;-76
2023/03/24 12:56:25;;;;;;;;;;;;;;;20.44;44.29;100540.69;5065949;28;19916;-76
2023/03/24 12:59:19;;;;;;;;;;;;;;;20.21;45.07;100531.84;5053972;28;19917;-76
2023/03/24 13:02:14;;;;;;;;;;;;;;;19.96;45.53;100531.69;5056943;28;19921;-76
2023/03/24 13:05:24;;;;;;;;;;;;;;;20.25;44.91;100527.94;5061515;28;20360;-77
2023/03/24 13:08:20;;;;;;;;;;;;;;;20.23;45.08;100518.44;5046581;28;19917;-76
2023/03/24 13:11:13;;;;;;;;;;;;;;;20.01;45.63;100512.00;5063759;28;19920;-76
2023/03/24 13:14:07;;;;;;;;;;;;;;;20.36;45.22;100516.97;5060719;28;20392;-77
2023/03/24 13:17:01;;;;;;;;;;;;;;;19.86;46.60;100505.56;5063522;28;19924;-76
2023/03/24 13:19:55;;;;;;;;;;;;;;;19.70;46.79;100496.78;5062459;28;19921;-76
2023/03/24 13:22:48;;;;;;;;;;;;;;;20.01;46.07;100500.97;5066092;28;19924;-76
2023/03/24 13:25:51;;;;;;;;;;;;;;;20.09;45.89;100494.28;5065298;28;19924;-77
2023/03/24 13:28:58;;;;;;;;;;;;;;;19.66;47.00;100500.69;5058207;28;19916;-76
2023/03/24 13:31:54;;;;;;;;;;;;;;;20.35;45.15;100496.84;5073331;28;19924;-77
2023/03/24 13:34:47;;;;;;;;;;;;;;;20.03;45.46;100504.09;5072456;28;19917;-77
2023/03/24 13:38:00;;;;;;;;;;;;;;;24.52;37.00;100491.28;5059678;28;19917;-77
2023/03/24 13:40:53;;;;;;;;;;;;;;;29.08;27.96;100490.47;5051580;28;21436;-77
2023/03/24 13:43:48;;;;;;;;;;;;;;;27.07;30.16;100489.00;5054865;28;20525;-77
2023/03/24 13:46:41;;;;;;;;;;;;;;;28.20;28.62;100493.78;5053784;28;19921;-77
2023/03/24 13:49:34;;;;;;;;;;;;;;;28.27;28.49;100496.41;5070180;28;20376;-76
2023/03/24 13:52:34;;;;;;;;;;;;;;;28.38;28.73;100488.50;5065560;28;20379;-76
2023/03/24 13:55:24;;;;;;;;;;;;;;;28.69;27.89;100486.81;5069103;28;19924;-76
2023/03/24 13:58:18;;;;;;;;;;;;;;;28.63;27.58;100482.19;5059275;28;19921;-74
2023/03/24 14:01:10;;;;;;;;;;;;;;;29.27;26.95;100467.03;5056768;28;19916;-75
2023/03/24 14:04:18;;;;;;;;;;;;;;;27.88;28.59;100459.09;5053017;28;19921;-75
2023/03/24 14:07:26;;;;;;;;;;;;;;;27.27;29.23;100466.59;5047396;28;19925;-77
2023/03/24 14:10:19;;;;;;;;;;;;;;;28.19;28.58;100453.84;5049706;28;19921;-76
2023/03/24 14:13:14;;;;;;;;;;;;;;;28.38;27.26;100452.16;5053208;28;20564;-76
2023/03/24 14:16:25;;;;;;;;;;;;;;;27.65;28.99;100448.09;5049063;28;20307;-76
2023/03/24 14:19:20;;;;;;;;;;;;;;;27.26;29.31;100451.06;5051198;28;19913;-77
2023/03/24 14:22:29;;;;;;;;;;;;;;;26.74;29.77;100462.97;5056112;28;19917;-76
2023/03/24 14:25:25;;;;;;;;;;;;;;;24.81;32.98;100444.41;5062122;28;19917;-76
2023/03/24 14:28:34;;;;;;;;;;;;;;;25.22;32.64;100437.88;5067158;28;19917;-76
2023/03/24 14:31:28;;;;;;;;;;;;;;;25.30;31.58;100431.78;5030203;28;19917;-79
2023/03/24 14:34:24;;;;;;;;;;;;;;;24.63;32.37;100428.00;5038950;28;19921;-80
2023/03/24 14:37:16;;;;;;;;;;;;;;;24.59;32.73;100421.66;5047549;28;19917;-77
2023/03/24 14:40:05;;;;;;;;;;;;;;;24.35;33.31;100413.66;5038566;28;19917;-78
2023/03/24 14:42:58;;;;;;;;;;;;;;;23.72;34.70;100413.91;5052660;28;20383;-77
2023/03/24 14:46:00;;;;;;;;;;;;;;;23.36;35.18;100404.31;5056711;28;19916;-79
2023/03/24 14:48:55;;;;;;;;;;;;;;;23.27;35.35;100402.00;5054640;28;19921;-79
2023/03/24 14:51:58;;;;;;;;;;;;;;;23.68;34.44;100392.94;5056595;28;19920;-78
2023/03/24 14:54:55;;;;;;;;;;;;;;;23.61;33.94;100390.25;5054111;28;19921;-78
2023/03/24 14:57:47;;;;;;;;;;;;;;;23.19;34.37;100399.69;5052577;28;19916;-80
2023/03/24 15:00:41;;;;;;;;;;;;;;;23.05;34.54;100406.16;5055300;28;19916;-78
2023/03/24 15:03:49;;;;;;;;;;;;;;;23.01;34.62;100414.47;5057823;28;19917;-78